sensor_id;sensor_type;location;lat;lon;timestamp;P1;durP1;ratioP1;P2;durP2;ratioP2
59854;SDS011;45732;52.850;6.896;2023-01-31T00:01:20;23.33;;;3.92;;
59854;SDS011;45732;52.850;6.896;2023-01-31T00:03:47;22.08;;;3.38;;
59854;SDS011;45732;52.850;6.896;2023-01-31T00:06:28;24.05;;;4.35;;
59854;SDS011;45732;52.850;6.896;2023-01-31T00:09:05;24.85;;;4.35;;
59854;SDS011;45732;52.850;6.896;2023-01-31T00:11:32;20.38;;;3.60;;
59854;SDS011;45732;52.850;6.896;2023-01-31T00:13:58;24.25;;;4.03;;
59854;SDS011;45732;52.850;6.896;2023-01-31T00:16:25;19.42;;;3.58;;
59854;SDS011;45732;52.850;6.896;2023-01-31T00:18:51;26.85;;;3.88;;
59854;SDS011;45732;52.850;6.896;2023-01-31T00:21:18;23.02;;;3.92;;
59854;SDS011;45732;52.850;6.896;2023-01-31T00:23:45;21.77;;;3.75;;
59854;SDS011;45732;52.850;6.896;2023-01-31T00:28:38;21.23;;;3.88;;
59854;SDS011;45732;52.850;6.896;2023-01-31T00:31:05;18.67;;;3.65;;
59854;SDS011;45732;52.850;6.896;2023-01-31T00:33:32;18.25;;;3.22;;
59854;SDS011;45732;52.850;6.896;2023-01-31T00:36:02;21.35;;;3.47;;
59854;SDS011;45732;52.850;6.896;2023-01-31T00:38:29;23.55;;;4.18;;
59854;SDS011;45732;52.850;6.896;2023-01-31T00:40:55;19.75;;;3.78;;
59854;SDS011;45732;52.850;6.896;2023-01-31T00:43:20;23.33;;;4.18;;
59854;SDS011;45732;52.850;6.896;2023-01-31T00:45:46;18.33;;;3.78;;
59854;SDS011;45732;52.850;6.896;2023-01-31T00:48:12;19.77;;;3.10;;
59854;SDS011;45732;52.850;6.896;2023-01-31T00:50:38;20.80;;;4.30;;
59854;SDS011;45732;52.850;6.896;2023-01-31T00:53:03;16.33;;;3.38;;
59854;SDS011;45732;52.850;6.896;2023-01-31T00:55:29;21.20;;;3.53;;
59854;SDS011;45732;52.850;6.896;2023-01-31T00:57:55;16.90;;;3.30;;
59854;SDS011;45732;52.850;6.896;2023-01-31T01:00:20;18.60;;;3.55;;
59854;SDS011;45732;52.850;6.896;2023-01-31T01:02:46;20.50;;;3.20;;
59854;SDS011;45732;52.850;6.896;2023-01-31T01:05:12;19.90;;;3.30;;
59854;SDS011;45732;52.850;6.896;2023-01-31T01:07:38;17.50;;;3.13;;
59854;SDS011;45732;52.850;6.896;2023-01-31T01:10:04;20.60;;;2.85;;
59854;SDS011;45732;52.850;6.896;2023-01-31T01:12:31;16.83;;;3.17;;
59854;SDS011;45732;52.850;6.896;2023-01-31T01:14:56;24.05;;;3.83;;
59854;SDS011;45732;52.850;6.896;2023-01-31T01:17:22;25.23;;;3.90;;
59854;SDS011;45732;52.850;6.896;2023-01-31T01:19:48;23.85;;;3.83;;
59854;SDS011;45732;52.850;6.896;2023-01-31T01:22:14;18.25;;;3.00;;
59854;SDS011;45732;52.850;6.896;2023-01-31T01:24:43;25.73;;;3.50;;
59854;SDS011;45732;52.850;6.896;2023-01-31T01:27:09;17.15;;;3.38;;
59854;SDS011;45732;52.850;6.896;2023-01-31T01:29:36;18.08;;;3.10;;
59854;SDS011;45732;52.850;6.896;2023-01-31T01:32:02;21.27;;;4.07;;
59854;SDS011;45732;52.850;6.896;2023-01-31T01:34:29;22.27;;;3.20;;
59854;SDS011;45732;52.850;6.896;2023-01-31T01:36:55;18.83;;;3.53;;
59854;SDS011;45732;52.850;6.896;2023-01-31T01:39:21;20.42;;;3.25;;
59854;SDS011;45732;52.850;6.896;2023-01-31T01:41:47;21.33;;;3.10;;
59854;SDS011;45732;52.850;6.896;2023-01-31T01:47:20;16.42;;;3.53;;
59854;SDS011;45732;52.850;6.896;2023-01-31T01:49:52;22.27;;;3.20;;
59854;SDS011;45732;52.850;6.896;2023-01-31T01:52:23;22.13;;;3.47;;
59854;SDS011;45732;52.850;6.896;2023-01-31T01:54:53;16.95;;;2.85;;
59854;SDS011;45732;52.850;6.896;2023-01-31T01:57:25;22.98;;;3.35;;
59854;SDS011;45732;52.850;6.896;2023-01-31T02:00:02;19.58;;;3.80;;
59854;SDS011;45732;52.850;6.896;2023-01-31T02:02:38;18.20;;;2.60;;
59854;SDS011;45732;52.850;6.896;2023-01-31T02:05:05;20.08;;;3.53;;
59854;SDS011;45732;52.850;6.896;2023-01-31T02:07:32;19.35;;;3.28;;
59854;SDS011;45732;52.850;6.896;2023-01-31T02:12:31;17.25;;;2.95;;
59854;SDS011;45732;52.850;6.896;2023-01-31T02:14:58;18.85;;;3.28;;
59854;SDS011;45732;52.850;6.896;2023-01-31T02:17:24;15.32;;;2.63;;
59854;SDS011;45732;52.850;6.896;2023-01-31T02:22:31;19.23;;;3.50;;
59854;SDS011;45732;52.850;6.896;2023-01-31T02:25:15;18.10;;;3.00;;
59854;SDS011;45732;52.850;6.896;2023-01-31T02:42:00;24.92;;;3.90;;
59854;SDS011;45732;52.850;6.896;2023-01-31T02:44:29;22.17;;;4.32;;
59854;SDS011;45732;52.850;6.896;2023-01-31T02:49:57;18.52;;;2.78;;
59854;SDS011;45732;52.850;6.896;2023-01-31T02:52:50;16.10;;;2.90;;
59854;SDS011;45732;52.850;6.896;2023-01-31T02:55:46;18.05;;;2.70;;
59854;SDS011;45732;52.850;6.896;2023-01-31T02:58:38;15.63;;;3.00;;
59854;SDS011;45732;52.850;6.896;2023-01-31T03:01:06;18.13;;;2.88;;
59854;SDS011;45732;52.850;6.896;2023-01-31T03:03:38;19.25;;;3.92;;
59854;SDS011;45732;52.850;6.896;2023-01-31T03:11:37;19.98;;;3.28;;
59854;SDS011;45732;52.850;6.896;2023-01-31T03:17:02;16.25;;;2.90;;
59854;SDS011;45732;52.850;6.896;2023-01-31T03:19:51;18.05;;;3.70;;
59854;SDS011;45732;52.850;6.896;2023-01-31T03:22:41;16.17;;;3.10;;
59854;SDS011;45732;52.850;6.896;2023-01-31T03:25:14;14.98;;;2.70;;
59854;SDS011;45732;52.850;6.896;2023-01-31T03:27:46;14.98;;;2.53;;
59854;SDS011;45732;52.850;6.896;2023-01-31T03:30:18;18.92;;;3.53;;
59854;SDS011;45732;52.850;6.896;2023-01-31T03:32:49;15.02;;;2.88;;
59854;SDS011;45732;52.850;6.896;2023-01-31T03:35:23;17.20;;;2.78;;
59854;SDS011;45732;52.850;6.896;2023-01-31T03:40:26;19.33;;;3.97;;
59854;SDS011;45732;52.850;6.896;2023-01-31T03:43:02;16.50;;;3.17;;
59854;SDS011;45732;52.850;6.896;2023-01-31T03:45:40;22.65;;;3.53;;
59854;SDS011;45732;52.850;6.896;2023-01-31T03:48:21;14.15;;;2.95;;
59854;SDS011;45732;52.850;6.896;2023-01-31T03:50:55;19.63;;;3.33;;
59854;SDS011;45732;52.850;6.896;2023-01-31T03:53:28;18.65;;;2.95;;
59854;SDS011;45732;52.850;6.896;2023-01-31T03:56:09;17.30;;;3.17;;
59854;SDS011;45732;52.850;6.896;2023-01-31T03:58:43;15.65;;;3.05;;
59854;SDS011;45732;52.850;6.896;2023-01-31T04:01:11;20.52;;;3.30;;
59854;SDS011;45732;52.850;6.896;2023-01-31T04:03:55;20.38;;;3.03;;
59854;SDS011;45732;52.850;6.896;2023-01-31T04:06:25;18.88;;;3.38;;
59854;SDS011;45732;52.850;6.896;2023-01-31T04:08:51;13.80;;;3.25;;
59854;SDS011;45732;52.850;6.896;2023-01-31T04:11:18;19.08;;;3.83;;
59854;SDS011;45732;52.850;6.896;2023-01-31T04:13:48;13.88;;;3.30;;
59854;SDS011;45732;52.850;6.896;2023-01-31T04:16:14;17.67;;;3.08;;
59854;SDS011;45732;52.850;6.896;2023-01-31T04:18:40;18.77;;;3.80;;
59854;SDS011;45732;52.850;6.896;2023-01-31T04:21:05;16.17;;;2.85;;
59854;SDS011;45732;52.850;6.896;2023-01-31T04:23:31;15.32;;;2.90;;
59854;SDS011;45732;52.850;6.896;2023-01-31T04:25:57;17.23;;;3.20;;
59854;SDS011;45732;52.850;6.896;2023-01-31T04:28:22;19.73;;;3.42;;
59854;SDS011;45732;52.850;6.896;2023-01-31T04:30:55;18.95;;;3.38;;
59854;SDS011;45732;52.850;6.896;2023-01-31T04:33:21;18.73;;;3.40;;
59854;SDS011;45732;52.850;6.896;2023-01-31T04:35:47;18.83;;;3.58;;
59854;SDS011;45732;52.850;6.896;2023-01-31T04:38:15;17.52;;;3.20;;
59854;SDS011;45732;52.850;6.896;2023-01-31T04:40:41;24.13;;;3.97;;
59854;SDS011;45732;52.850;6.896;2023-01-31T04:43:06;16.35;;;3.42;;
59854;SDS011;45732;52.850;6.896;2023-01-31T04:45:32;16.88;;;3.70;;
59854;SDS011;45732;52.850;6.896;2023-01-31T04:47:58;18.42;;;3.55;;
59854;SDS011;45732;52.850;6.896;2023-01-31T04:50:23;17.55;;;3.42;;
59854;SDS011;45732;52.850;6.896;2023-01-31T04:52:49;18.85;;;3.72;;
59854;SDS011;45732;52.850;6.896;2023-01-31T04:55:16;19.25;;;3.97;;
59854;SDS011;45732;52.850;6.896;2023-01-31T04:57:42;17.67;;;3.88;;
59854;SDS011;45732;52.850;6.896;2023-01-31T05:00:08;16.52;;;3.30;;
59854;SDS011;45732;52.850;6.896;2023-01-31T05:02:35;20.15;;;3.72;;
59854;SDS011;45732;52.850;6.896;2023-01-31T05:05:01;21.38;;;4.47;;
59854;SDS011;45732;52.850;6.896;2023-01-31T05:07:27;21.17;;;3.70;;
59854;SDS011;45732;52.850;6.896;2023-01-31T05:09:53;25.05;;;3.95;;
59854;SDS011;45732;52.850;6.896;2023-01-31T05:12:18;20.20;;;4.05;;
59854;SDS011;45732;52.850;6.896;2023-01-31T05:14:44;16.17;;;3.15;;
59854;SDS011;45732;52.850;6.896;2023-01-31T05:17:10;15.43;;;3.40;;
59854;SDS011;45732;52.850;6.896;2023-01-31T05:19:36;22.23;;;4.07;;
59854;SDS011;45732;52.850;6.896;2023-01-31T05:22:01;20.88;;;4.68;;
59854;SDS011;45732;52.850;6.896;2023-01-31T05:24:28;21.02;;;3.92;;
59854;SDS011;45732;52.850;6.896;2023-01-31T05:26:56;23.45;;;4.68;;
59854;SDS011;45732;52.850;6.896;2023-01-31T05:29:24;22.95;;;4.88;;
59854;SDS011;45732;52.850;6.896;2023-01-31T05:31:51;22.90;;;4.32;;
59854;SDS011;45732;52.850;6.896;2023-01-31T05:34:18;26.75;;;4.88;;
59854;SDS011;45732;52.850;6.896;2023-01-31T05:36:44;23.55;;;4.70;;
59854;SDS011;45732;52.850;6.896;2023-01-31T05:39:10;27.00;;;5.18;;
59854;SDS011;45732;52.850;6.896;2023-01-31T05:41:36;25.02;;;6.10;;
59854;SDS011;45732;52.850;6.896;2023-01-31T05:44:02;20.27;;;4.93;;
59854;SDS011;45732;52.850;6.896;2023-01-31T05:46:27;21.55;;;5.00;;
59854;SDS011;45732;52.850;6.896;2023-01-31T05:48:53;22.08;;;4.80;;
59854;SDS011;45732;52.850;6.896;2023-01-31T05:51:19;26.90;;;5.68;;
59854;SDS011;45732;52.850;6.896;2023-01-31T05:53:45;24.65;;;5.22;;
59854;SDS011;45732;52.850;6.896;2023-01-31T05:56:12;31.08;;;5.72;;
59854;SDS011;45732;52.850;6.896;2023-01-31T05:58:38;28.90;;;5.78;;
59854;SDS011;45732;52.850;6.896;2023-01-31T06:01:04;21.20;;;5.32;;
59854;SDS011;45732;52.850;6.896;2023-01-31T06:03:30;28.52;;;5.60;;
59854;SDS011;45732;52.850;6.896;2023-01-31T06:05:55;25.35;;;5.90;;
59854;SDS011;45732;52.850;6.896;2023-01-31T06:08:21;23.20;;;5.78;;
59854;SDS011;45732;52.850;6.896;2023-01-31T06:10:47;23.00;;;5.63;;
59854;SDS011;45732;52.850;6.896;2023-01-31T06:13:12;28.70;;;6.30;;
59854;SDS011;45732;52.850;6.896;2023-01-31T06:15:44;22.40;;;6.38;;
59854;SDS011;45732;52.850;6.896;2023-01-31T06:18:10;26.70;;;5.93;;
59854;SDS011;45732;52.850;6.896;2023-01-31T06:20:36;28.20;;;6.55;;
59854;SDS011;45732;52.850;6.896;2023-01-31T06:23:03;26.10;;;7.05;;
59854;SDS011;45732;52.850;6.896;2023-01-31T06:25:29;24.85;;;7.25;;
59854;SDS011;45732;52.850;6.896;2023-01-31T06:27:55;30.08;;;6.78;;
59854;SDS011;45732;52.850;6.896;2023-01-31T06:30:21;27.30;;;7.40;;
59854;SDS011;45732;52.850;6.896;2023-01-31T06:32:47;24.52;;;7.40;;
59854;SDS011;45732;52.850;6.896;2023-01-31T06:35:12;25.10;;;6.97;;
59854;SDS011;45732;52.850;6.896;2023-01-31T06:37:39;24.80;;;7.55;;
59854;SDS011;45732;52.850;6.896;2023-01-31T06:40:05;25.20;;;7.15;;
59854;SDS011;45732;52.850;6.896;2023-01-31T06:42:31;29.10;;;7.50;;
59854;SDS011;45732;52.850;6.896;2023-01-31T06:44:56;39.33;;;8.65;;
59854;SDS011;45732;52.850;6.896;2023-01-31T06:47:22;30.70;;;8.02;;
59854;SDS011;45732;52.850;6.896;2023-01-31T06:49:48;27.25;;;8.73;;
59854;SDS011;45732;52.850;6.896;2023-01-31T06:52:14;32.17;;;9.10;;
59854;SDS011;45732;52.850;6.896;2023-01-31T06:54:39;31.13;;;9.15;;
59854;SDS011;45732;52.850;6.896;2023-01-31T06:57:05;29.40;;;8.73;;
59854;SDS011;45732;52.850;6.896;2023-01-31T06:59:31;34.03;;;10.13;;
59854;SDS011;45732;52.850;6.896;2023-01-31T07:01:57;31.05;;;9.50;;
59854;SDS011;45732;52.850;6.896;2023-01-31T07:04:22;29.55;;;10.65;;
59854;SDS011;45732;52.850;6.896;2023-01-31T07:06:48;31.50;;;9.38;;
59854;SDS011;45732;52.850;6.896;2023-01-31T07:09:14;31.23;;;9.88;;
59854;SDS011;45732;52.850;6.896;2023-01-31T07:11:39;28.48;;;8.65;;
59854;SDS011;45732;52.850;6.896;2023-01-31T07:14:05;28.23;;;9.10;;
59854;SDS011;45732;52.850;6.896;2023-01-31T07:16:31;27.98;;;9.07;;
59854;SDS011;45732;52.850;6.896;2023-01-31T07:18:56;32.03;;;9.23;;
59854;SDS011;45732;52.850;6.896;2023-01-31T07:21:22;28.90;;;8.30;;
59854;SDS011;45732;52.850;6.896;2023-01-31T07:23:48;28.90;;;9.35;;
59854;SDS011;45732;52.850;6.896;2023-01-31T07:26:14;25.50;;;8.07;;
59854;SDS011;45732;52.850;6.896;2023-01-31T07:28:40;27.48;;;7.72;;
59854;SDS011;45732;52.850;6.896;2023-01-31T07:31:07;27.17;;;8.27;;
59854;SDS011;45732;52.850;6.896;2023-01-31T07:33:35;31.15;;;7.95;;
59854;SDS011;45732;52.850;6.896;2023-01-31T07:36:02;32.30;;;8.82;;
59854;SDS011;45732;52.850;6.896;2023-01-31T07:38:29;31.40;;;8.13;;
59854;SDS011;45732;52.850;6.896;2023-01-31T07:40:59;25.52;;;7.47;;
59854;SDS011;45732;52.850;6.896;2023-01-31T07:45:54;25.33;;;6.78;;
59854;SDS011;45732;52.850;6.896;2023-01-31T07:48:20;25.92;;;7.10;;
59854;SDS011;45732;52.850;6.896;2023-01-31T07:51:00;25.38;;;7.20;;
59854;SDS011;45732;52.850;6.896;2023-01-31T07:53:27;24.23;;;6.32;;
59854;SDS011;45732;52.850;6.896;2023-01-31T07:56:09;29.17;;;7.18;;
59854;SDS011;45732;52.850;6.896;2023-01-31T08:01:06;23.70;;;6.45;;
59854;SDS011;45732;52.850;6.896;2023-01-31T08:03:53;25.58;;;7.03;;
59854;SDS011;45732;52.850;6.896;2023-01-31T08:06:19;25.88;;;7.28;;
59854;SDS011;45732;52.850;6.896;2023-01-31T08:08:44;20.88;;;6.40;;
59854;SDS011;45732;52.850;6.896;2023-01-31T08:11:10;25.67;;;7.22;;
59854;SDS011;45732;52.850;6.896;2023-01-31T08:13:36;27.27;;;7.20;;
59854;SDS011;45732;52.850;6.896;2023-01-31T08:16:04;28.50;;;6.93;;
59854;SDS011;45732;52.850;6.896;2023-01-31T08:18:31;26.88;;;6.88;;
59854;SDS011;45732;52.850;6.896;2023-01-31T08:20:57;26.27;;;6.47;;
59854;SDS011;45732;52.850;6.896;2023-01-31T08:23:23;20.85;;;6.10;;
59854;SDS011;45732;52.850;6.896;2023-01-31T08:25:49;21.05;;;6.47;;
59854;SDS011;45732;52.850;6.896;2023-01-31T08:28:15;23.83;;;6.78;;
59854;SDS011;45732;52.850;6.896;2023-01-31T08:30:41;26.13;;;6.63;;
59854;SDS011;45732;52.850;6.896;2023-01-31T08:33:08;23.85;;;6.45;;
59854;SDS011;45732;52.850;6.896;2023-01-31T08:35:35;20.48;;;7.05;;
59854;SDS011;45732;52.850;6.896;2023-01-31T08:38:02;22.33;;;6.57;;
59854;SDS011;45732;52.850;6.896;2023-01-31T08:40:28;21.55;;;6.68;;
59854;SDS011;45732;52.850;6.896;2023-01-31T08:42:55;24.95;;;7.40;;
59854;SDS011;45732;52.850;6.896;2023-01-31T08:45:22;21.38;;;6.03;;
59854;SDS011;45732;52.850;6.896;2023-01-31T08:47:51;28.58;;;6.57;;
59854;SDS011;45732;52.850;6.896;2023-01-31T08:50:19;24.50;;;6.65;;
59854;SDS011;45732;52.850;6.896;2023-01-31T08:52:44;25.45;;;6.63;;
59854;SDS011;45732;52.850;6.896;2023-01-31T08:55:10;24.50;;;7.47;;
59854;SDS011;45732;52.850;6.896;2023-01-31T08:57:38;27.17;;;6.95;;
59854;SDS011;45732;52.850;6.896;2023-01-31T09:00:05;24.70;;;7.25;;
59854;SDS011;45732;52.850;6.896;2023-01-31T09:02:32;24.40;;;6.40;;
59854;SDS011;45732;52.850;6.896;2023-01-31T09:04:58;23.60;;;6.10;;
59854;SDS011;45732;52.850;6.896;2023-01-31T09:07:23;24.90;;;6.65;;
59854;SDS011;45732;52.850;6.896;2023-01-31T09:09:49;19.90;;;6.22;;
59854;SDS011;45732;52.850;6.896;2023-01-31T09:12:15;20.70;;;6.15;;
59854;SDS011;45732;52.850;6.896;2023-01-31T09:14:40;23.75;;;6.25;;
59854;SDS011;45732;52.850;6.896;2023-01-31T09:17:06;23.33;;;5.82;;
59854;SDS011;45732;52.850;6.896;2023-01-31T09:19:32;23.40;;;5.70;;
59854;SDS011;45732;52.850;6.896;2023-01-31T09:21:58;22.88;;;5.97;;
59854;SDS011;45732;52.850;6.896;2023-01-31T09:24:23;21.38;;;5.20;;
59854;SDS011;45732;52.850;6.896;2023-01-31T09:26:49;23.98;;;5.00;;
59854;SDS011;45732;52.850;6.896;2023-01-31T09:29:15;21.50;;;5.25;;
59854;SDS011;45732;52.850;6.896;2023-01-31T09:31:40;21.35;;;5.43;;
59854;SDS011;45732;52.850;6.896;2023-01-31T09:34:06;17.70;;;4.95;;
59854;SDS011;45732;52.850;6.896;2023-01-31T09:36:32;17.95;;;5.18;;
59854;SDS011;45732;52.850;6.896;2023-01-31T09:38:57;20.48;;;5.30;;
59854;SDS011;45732;52.850;6.896;2023-01-31T09:43:56;14.35;;;4.35;;
59854;SDS011;45732;52.850;6.896;2023-01-31T09:46:27;18.98;;;4.28;;
59854;SDS011;45732;52.850;6.896;2023-01-31T09:48:58;19.05;;;5.18;;
59854;SDS011;45732;52.850;6.896;2023-01-31T09:51:26;17.85;;;4.75;;
59854;SDS011;45732;52.850;6.896;2023-01-31T09:53:53;17.35;;;5.55;;
59854;SDS011;45732;52.850;6.896;2023-01-31T09:58:58;19.08;;;3.97;;
59854;SDS011;45732;52.850;6.896;2023-01-31T10:07:28;17.25;;;4.32;;
59854;SDS011;45732;52.850;6.896;2023-01-31T10:10:02;15.10;;;4.05;;
59854;SDS011;45732;52.850;6.896;2023-01-31T10:12:53;15.43;;;4.18;;
59854;SDS011;45732;52.850;6.896;2023-01-31T10:15:33;19.67;;;4.40;;
59854;SDS011;45732;52.850;6.896;2023-01-31T10:18:10;17.95;;;3.95;;
59854;SDS011;45732;52.850;6.896;2023-01-31T10:20:48;21.65;;;3.83;;
59854;SDS011;45732;52.850;6.896;2023-01-31T10:23:36;19.98;;;4.35;;
59854;SDS011;45732;52.850;6.896;2023-01-31T10:28:44;20.58;;;4.35;;
59854;SDS011;45732;52.850;6.896;2023-01-31T10:31:22;19.20;;;4.68;;
59854;SDS011;45732;52.850;6.896;2023-01-31T10:37:01;16.58;;;4.78;;
59854;SDS011;45732;52.850;6.896;2023-01-31T10:39:53;13.20;;;3.88;;
59854;SDS011;45732;52.850;6.896;2023-01-31T10:42:30;20.23;;;4.30;;
59854;SDS011;45732;52.850;6.896;2023-01-31T10:47:34;18.88;;;4.45;;
59854;SDS011;45732;52.850;6.896;2023-01-31T10:58:30;18.77;;;6.03;;
59854;SDS011;45732;52.850;6.896;2023-01-31T11:00:57;26.77;;;6.35;;
59854;SDS011;45732;52.850;6.896;2023-01-31T11:03:23;20.75;;;5.90;;
59854;SDS011;45732;52.850;6.896;2023-01-31T11:05:53;17.85;;;6.00;;
59854;SDS011;45732;52.850;6.896;2023-01-31T11:08:34;24.02;;;5.97;;
59854;SDS011;45732;52.850;6.896;2023-01-31T11:11:07;24.13;;;6.15;;
59854;SDS011;45732;52.850;6.896;2023-01-31T11:13:34;21.02;;;6.43;;
59854;SDS011;45732;52.850;6.896;2023-01-31T11:16:01;25.55;;;6.80;;
59854;SDS011;45732;52.850;6.896;2023-01-31T11:18:31;20.77;;;6.65;;
59854;SDS011;45732;52.850;6.896;2023-01-31T11:21:18;19.08;;;5.65;;
59854;SDS011;45732;52.850;6.896;2023-01-31T11:23:49;17.73;;;6.05;;
59854;SDS011;45732;52.850;6.896;2023-01-31T11:26:26;19.52;;;5.40;;
59854;SDS011;45732;52.850;6.896;2023-01-31T11:28:55;20.85;;;5.80;;
59854;SDS011;45732;52.850;6.896;2023-01-31T11:31:31;20.33;;;5.50;;
59854;SDS011;45732;52.850;6.896;2023-01-31T11:34:03;19.98;;;5.43;;
59854;SDS011;45732;52.850;6.896;2023-01-31T11:36:42;21.35;;;5.47;;
59854;SDS011;45732;52.850;6.896;2023-01-31T11:39:29;26.33;;;6.38;;
59854;SDS011;45732;52.850;6.896;2023-01-31T11:41:56;22.98;;;5.35;;
59854;SDS011;45732;52.850;6.896;2023-01-31T11:45:09;16.15;;;5.47;;
59854;SDS011;45732;52.850;6.896;2023-01-31T11:47:50;24.63;;;6.05;;
59854;SDS011;45732;52.850;6.896;2023-01-31T11:50:39;23.25;;;5.90;;
59854;SDS011;45732;52.850;6.896;2023-01-31T11:55:45;19.23;;;5.18;;
59854;SDS011;45732;52.850;6.896;2023-01-31T11:58:31;22.45;;;5.43;;
59854;SDS011;45732;52.850;6.896;2023-01-31T12:01:04;20.75;;;5.25;;
59854;SDS011;45732;52.850;6.896;2023-01-31T12:03:32;20.98;;;5.80;;
59854;SDS011;45732;52.850;6.896;2023-01-31T12:06:02;24.73;;;5.50;;
59854;SDS011;45732;52.850;6.896;2023-01-31T12:08:37;19.37;;;5.10;;
59854;SDS011;45732;52.850;6.896;2023-01-31T12:16:32;19.38;;;5.15;;
59854;SDS011;45732;52.850;6.896;2023-01-31T12:19:05;22.52;;;5.00;;
59854;SDS011;45732;52.850;6.896;2023-01-31T12:35:50;19.92;;;4.72;;
59854;SDS011;45732;52.850;6.896;2023-01-31T13:00:14;22.77;;;4.50;;
59854;SDS011;45732;52.850;6.896;2023-01-31T13:05:23;16.25;;;4.03;;
59854;SDS011;45732;52.850;6.896;2023-01-31T13:11:04;18.42;;;4.43;;
59854;SDS011;45732;52.850;6.896;2023-01-31T13:13:42;20.23;;;4.45;;
59854;SDS011;45732;52.850;6.896;2023-01-31T13:16:24;16.08;;;3.65;;
59854;SDS011;45732;52.850;6.896;2023-01-31T13:18:57;20.23;;;4.25;;
59854;SDS011;45732;52.850;6.896;2023-01-31T13:21:28;14.85;;;4.22;;
59854;SDS011;45732;52.850;6.896;2023-01-31T13:24:00;16.67;;;4.28;;
59854;SDS011;45732;52.850;6.896;2023-01-31T13:26:34;18.23;;;4.10;;
59854;SDS011;45732;52.850;6.896;2023-01-31T13:29:05;16.83;;;3.92;;
59854;SDS011;45732;52.850;6.896;2023-01-31T13:31:39;19.45;;;3.70;;
59854;SDS011;45732;52.850;6.896;2023-01-31T13:34:17;20.13;;;3.72;;
59854;SDS011;45732;52.850;6.896;2023-01-31T13:36:48;17.98;;;3.58;;
59854;SDS011;45732;52.850;6.896;2023-01-31T13:39:29;18.38;;;4.07;;
59854;SDS011;45732;52.850;6.896;2023-01-31T13:44:27;19.83;;;4.43;;
59854;SDS011;45732;52.850;6.896;2023-01-31T13:47:07;17.23;;;3.40;;
59854;SDS011;45732;52.850;6.896;2023-01-31T13:49:57;14.77;;;2.92;;
59854;SDS011;45732;52.850;6.896;2023-01-31T13:52:50;17.65;;;3.33;;
59854;SDS011;45732;52.850;6.896;2023-01-31T13:55:19;19.45;;;3.08;;
59854;SDS011;45732;52.850;6.896;2023-01-31T13:58:20;15.75;;;2.60;;
59854;SDS011;45732;52.850;6.896;2023-01-31T14:00:50;16.17;;;3.05;;
59854;SDS011;45732;52.850;6.896;2023-01-31T14:04:24;13.15;;;2.53;;
59854;SDS011;45732;52.850;6.896;2023-01-31T14:09:25;14.52;;;3.10;;
59854;SDS011;45732;52.850;6.896;2023-01-31T14:11:51;19.20;;;2.95;;
59854;SDS011;45732;52.850;6.896;2023-01-31T14:14:27;12.50;;;2.83;;
59854;SDS011;45732;52.850;6.896;2023-01-31T14:16:54;15.60;;;3.17;;
59854;SDS011;45732;52.850;6.896;2023-01-31T14:22:31;15.13;;;3.50;;
59854;SDS011;45732;52.850;6.896;2023-01-31T14:29:45;14.00;;;3.33;;
59854;SDS011;45732;52.850;6.896;2023-01-31T14:32:13;15.88;;;2.85;;
59854;SDS011;45732;52.850;6.896;2023-01-31T14:34:46;14.70;;;2.88;;
59854;SDS011;45732;52.850;6.896;2023-01-31T14:37:23;12.60;;;2.90;;
59854;SDS011;45732;52.850;6.896;2023-01-31T14:42:49;11.95;;;2.80;;
59854;SDS011;45732;52.850;6.896;2023-01-31T14:50:39;14.40;;;3.30;;
59854;SDS011;45732;52.850;6.896;2023-01-31T14:53:34;11.15;;;2.72;;
59854;SDS011;45732;52.850;6.896;2023-01-31T14:56:22;13.77;;;3.00;;
59854;SDS011;45732;52.850;6.896;2023-01-31T14:58:59;10.48;;;2.50;;
59854;SDS011;45732;52.850;6.896;2023-01-31T15:01:30;11.63;;;2.58;;
59854;SDS011;45732;52.850;6.896;2023-01-31T15:03:59;16.05;;;3.15;;
59854;SDS011;45732;52.850;6.896;2023-01-31T15:06:28;14.35;;;3.00;;
59854;SDS011;45732;52.850;6.896;2023-01-31T15:11:45;15.98;;;3.10;;
59854;SDS011;45732;52.850;6.896;2023-01-31T15:16:59;17.17;;;3.38;;
59854;SDS011;45732;52.850;6.896;2023-01-31T15:22:22;16.80;;;3.30;;
59854;SDS011;45732;52.850;6.896;2023-01-31T15:24:53;15.20;;;3.08;;
59854;SDS011;45732;52.850;6.896;2023-01-31T15:27:22;16.85;;;4.07;;
59854;SDS011;45732;52.850;6.896;2023-01-31T15:30:10;18.27;;;3.47;;
59854;SDS011;45732;52.850;6.896;2023-01-31T15:38:03;18.70;;;3.38;;
59854;SDS011;45732;52.850;6.896;2023-01-31T15:43:43;15.57;;;3.63;;
59854;SDS011;45732;52.850;6.896;2023-01-31T15:46:28;18.13;;;3.72;;
59854;SDS011;45732;52.850;6.896;2023-01-31T15:48:56;16.88;;;3.65;;
59854;SDS011;45732;52.850;6.896;2023-01-31T15:51:22;16.13;;;3.08;;
59854;SDS011;45732;52.850;6.896;2023-01-31T15:53:58;15.70;;;3.45;;
59854;SDS011;45732;52.850;6.896;2023-01-31T15:56:26;20.63;;;3.80;;
59854;SDS011;45732;52.850;6.896;2023-01-31T15:58:54;16.05;;;2.88;;
59854;SDS011;45732;52.850;6.896;2023-01-31T16:01:21;23.00;;;3.78;;
59854;SDS011;45732;52.850;6.896;2023-01-31T16:03:56;19.88;;;4.40;;
59854;SDS011;45732;52.850;6.896;2023-01-31T16:06:28;16.15;;;3.60;;
59854;SDS011;45732;52.850;6.896;2023-01-31T16:08:57;21.25;;;3.50;;
59854;SDS011;45732;52.850;6.896;2023-01-31T16:11:24;21.35;;;3.72;;
59854;SDS011;45732;52.850;6.896;2023-01-31T16:13:51;19.17;;;4.00;;
59854;SDS011;45732;52.850;6.896;2023-01-31T16:16:20;18.23;;;3.60;;
59854;SDS011;45732;52.850;6.896;2023-01-31T16:18:49;19.85;;;3.85;;
59854;SDS011;45732;52.850;6.896;2023-01-31T16:24:12;23.60;;;3.85;;
59854;SDS011;45732;52.850;6.896;2023-01-31T16:29:21;16.25;;;3.33;;
59854;SDS011;45732;52.850;6.896;2023-01-31T16:31:54;17.63;;;3.78;;
59854;SDS011;45732;52.850;6.896;2023-01-31T16:39:21;20.00;;;3.90;;
59854;SDS011;45732;52.850;6.896;2023-01-31T16:41:58;22.60;;;4.22;;
59854;SDS011;45732;52.850;6.896;2023-01-31T16:44:26;20.25;;;4.53;;
59854;SDS011;45732;52.850;6.896;2023-01-31T16:46:59;22.15;;;4.15;;
59854;SDS011;45732;52.850;6.896;2023-01-31T16:49:29;21.67;;;4.43;;
59854;SDS011;45732;52.850;6.896;2023-01-31T16:57:34;18.30;;;4.10;;
59854;SDS011;45732;52.850;6.896;2023-01-31T17:00:01;23.50;;;4.30;;
59854;SDS011;45732;52.850;6.896;2023-01-31T17:02:34;26.05;;;4.70;;
59854;SDS011;45732;52.850;6.896;2023-01-31T17:05:12;24.00;;;4.18;;
59854;SDS011;45732;52.850;6.896;2023-01-31T17:07:53;19.38;;;4.32;;
59854;SDS011;45732;52.850;6.896;2023-01-31T17:10:24;23.02;;;4.43;;
59854;SDS011;45732;52.850;6.896;2023-01-31T17:12:54;29.13;;;4.88;;
59854;SDS011;45732;52.850;6.896;2023-01-31T17:15:38;21.95;;;4.22;;
59854;SDS011;45732;52.850;6.896;2023-01-31T17:18:04;20.27;;;4.53;;
59854;SDS011;45732;52.850;6.896;2023-01-31T17:20:30;25.58;;;3.97;;
59854;SDS011;45732;52.850;6.896;2023-01-31T17:22:56;24.55;;;4.60;;
59854;SDS011;45732;52.850;6.896;2023-01-31T17:25:22;21.10;;;3.92;;
59854;SDS011;45732;52.850;6.896;2023-01-31T17:27:51;19.35;;;3.88;;
59854;SDS011;45732;52.850;6.896;2023-01-31T17:30:18;19.95;;;4.35;;
59854;SDS011;45732;52.850;6.896;2023-01-31T17:32:45;23.80;;;4.15;;
59854;SDS011;45732;52.850;6.896;2023-01-31T17:35:29;20.98;;;4.00;;
59854;SDS011;45732;52.850;6.896;2023-01-31T17:37:55;19.65;;;4.03;;
59854;SDS011;45732;52.850;6.896;2023-01-31T17:40:21;26.02;;;4.80;;
59854;SDS011;45732;52.850;6.896;2023-01-31T17:42:48;20.70;;;4.07;;
59854;SDS011;45732;52.850;6.896;2023-01-31T17:45:17;25.48;;;4.13;;
59854;SDS011;45732;52.850;6.896;2023-01-31T17:47:43;20.55;;;3.90;;